sensor_id;sensor_type;location;lat;lon;timestamp;P1;durP1;ratioP1;P2;durP2;ratioP2
19800;SDS011;10060;48.274;12.214;2023-07-20T00:02:40;6.53;;;3.15;;
19800;SDS011;10060;48.274;12.214;2023-07-20T00:05:42;6.05;;;2.92;;
19800;SDS011;10060;48.274;12.214;2023-07-20T00:08:44;5.72;;;3.00;;
19800;SDS011;10060;48.274;12.214;2023-07-20T00:11:48;6.95;;;3.47;;
19800;SDS011;10060;48.274;12.214;2023-07-20T00:14:52;5.72;;;3.13;;
19800;SDS011;10060;48.274;12.214;2023-07-20T00:17:54;6.90;;;3.88;;
19800;SDS011;10060;48.274;12.214;2023-07-20T00:20:56;5.38;;;3.17;;
19800;SDS011;10060;48.274;12.214;2023-07-20T00:23:59;6.28;;;3.42;;
19800;SDS011;10060;48.274;12.214;2023-07-20T00:27:02;8.32;;;3.88;;
19800;SDS011;10060;48.274;12.214;2023-07-20T00:30:06;6.57;;;3.55;;
19800;SDS011;10060;48.274;12.214;2023-07-20T00:33:09;5.50;;;3.33;;
19800;SDS011;10060;48.274;12.214;2023-07-20T00:36:12;9.38;;;3.10;;
19800;SDS011;10060;48.274;12.214;2023-07-20T00:39:14;5.07;;;3.30;;
19800;SDS011;10060;48.274;12.214;2023-07-20T00:42:16;4.30;;;3.33;;
19800;SDS011;10060;48.274;12.214;2023-07-20T00:45:19;5.82;;;3.22;;
19800;SDS011;10060;48.274;12.214;2023-07-20T00:48:22;6.03;;;2.97;;
19800;SDS011;10060;48.274;12.214;2023-07-20T00:51:24;5.03;;;3.25;;
19800;SDS011;10060;48.274;12.214;2023-07-20T00:54:27;6.07;;;3.70;;
19800;SDS011;10060;48.274;12.214;2023-07-20T00:57:29;5.53;;;3.60;;
19800;SDS011;10060;48.274;12.214;2023-07-20T01:00:33;6.30;;;3.45;;
19800;SDS011;10060;48.274;12.214;2023-07-20T01:03:35;8.00;;;4.20;;
19800;SDS011;10060;48.274;12.214;2023-07-20T01:06:40;8.07;;;3.95;;
19800;SDS011;10060;48.274;12.214;2023-07-20T01:09:44;6.88;;;4.40;;
19800;SDS011;10060;48.274;12.214;2023-07-20T01:12:47;6.25;;;3.88;;
19800;SDS011;10060;48.274;12.214;2023-07-20T01:15:52;8.70;;;4.05;;
19800;SDS011;10060;48.274;12.214;2023-07-20T01:18:55;6.47;;;4.25;;
19800;SDS011;10060;48.274;12.214;2023-07-20T01:21:59;6.47;;;3.85;;
19800;SDS011;10060;48.274;12.214;2023-07-20T01:28:23;6.95;;;4.30;;
19800;SDS011;10060;48.274;12.214;2023-07-20T01:31:29;8.98;;;4.03;;
19800;SDS011;10060;48.274;12.214;2023-07-20T01:34:33;5.18;;;3.47;;
19800;SDS011;10060;48.274;12.214;2023-07-20T01:37:36;5.70;;;3.88;;
19800;SDS011;10060;48.274;12.214;2023-07-20T01:40:39;11.68;;;4.05;;
19800;SDS011;10060;48.274;12.214;2023-07-20T01:43:42;10.20;;;4.50;;
19800;SDS011;10060;48.274;12.214;2023-07-20T01:46:45;7.03;;;4.07;;
19800;SDS011;10060;48.274;12.214;2023-07-20T01:49:47;7.70;;;3.80;;
19800;SDS011;10060;48.274;12.214;2023-07-20T01:52:49;5.75;;;3.88;;
19800;SDS011;10060;48.274;12.214;2023-07-20T01:55:52;5.43;;;4.20;;
19800;SDS011;10060;48.274;12.214;2023-07-20T01:58:54;8.52;;;4.53;;
19800;SDS011;10060;48.274;12.214;2023-07-20T02:01:58;6.07;;;4.13;;
19800;SDS011;10060;48.274;12.214;2023-07-20T02:05:00;6.32;;;3.50;;
19800;SDS011;10060;48.274;12.214;2023-07-20T02:08:02;8.75;;;3.95;;
19800;SDS011;10060;48.274;12.214;2023-07-20T02:11:04;6.38;;;3.72;;
19800;SDS011;10060;48.274;12.214;2023-07-20T02:14:06;6.78;;;3.38;;
19800;SDS011;10060;48.274;12.214;2023-07-20T02:17:10;7.07;;;3.78;;
19800;SDS011;10060;48.274;12.214;2023-07-20T02:20:12;6.65;;;3.92;;
19800;SDS011;10060;48.274;12.214;2023-07-20T02:23:14;7.65;;;4.10;;
19800;SDS011;10060;48.274;12.214;2023-07-20T02:26:16;4.85;;;3.50;;
19800;SDS011;10060;48.274;12.214;2023-07-20T02:29:18;4.30;;;3.40;;
19800;SDS011;10060;48.274;12.214;2023-07-20T02:32:22;6.82;;;3.67;;
19800;SDS011;10060;48.274;12.214;2023-07-20T02:35:24;6.75;;;4.00;;
19800;SDS011;10060;48.274;12.214;2023-07-20T02:38:26;9.57;;;3.70;;
19800;SDS011;10060;48.274;12.214;2023-07-20T02:41:28;10.25;;;4.07;;
19800;SDS011;10060;48.274;12.214;2023-07-20T02:44:30;4.47;;;3.75;;
19800;SDS011;10060;48.274;12.214;2023-07-20T02:47:34;5.97;;;3.70;;
19800;SDS011;10060;48.274;12.214;2023-07-20T02:50:36;6.68;;;3.97;;
19800;SDS011;10060;48.274;12.214;2023-07-20T02:53:38;8.20;;;3.63;;
19800;SDS011;10060;48.274;12.214;2023-07-20T02:56:41;11.25;;;4.60;;
19800;SDS011;10060;48.274;12.214;2023-07-20T02:59:43;12.23;;;4.85;;
19800;SDS011;10060;48.274;12.214;2023-07-20T03:02:47;9.43;;;4.75;;
19800;SDS011;10060;48.274;12.214;2023-07-20T03:05:52;7.82;;;4.18;;
19800;SDS011;10060;48.274;12.214;2023-07-20T03:08:56;6.13;;;4.60;;
19800;SDS011;10060;48.274;12.214;2023-07-20T03:11:58;5.40;;;3.88;;
19800;SDS011;10060;48.274;12.214;2023-07-20T03:15:01;6.78;;;4.38;;
19800;SDS011;10060;48.274;12.214;2023-07-20T03:18:04;8.13;;;4.00;;
19800;SDS011;10060;48.274;12.214;2023-07-20T03:21:07;6.63;;;4.15;;
19800;SDS011;10060;48.274;12.214;2023-07-20T03:24:11;7.00;;;4.28;;
19800;SDS011;10060;48.274;12.214;2023-07-20T03:27:13;7.05;;;3.83;;
19800;SDS011;10060;48.274;12.214;2023-07-20T03:30:15;6.95;;;3.75;;
19800;SDS011;10060;48.274;12.214;2023-07-20T03:33:19;8.68;;;4.07;;
19800;SDS011;10060;48.274;12.214;2023-07-20T03:36:21;7.60;;;3.78;;
19800;SDS011;10060;48.274;12.214;2023-07-20T03:39:23;6.13;;;3.95;;
19800;SDS011;10060;48.274;12.214;2023-07-20T03:42:25;7.45;;;4.40;;
19800;SDS011;10060;48.274;12.214;2023-07-20T03:45:27;9.18;;;3.85;;
19800;SDS011;10060;48.274;12.214;2023-07-20T03:48:31;9.10;;;4.00;;
19800;SDS011;10060;48.274;12.214;2023-07-20T03:51:33;8.32;;;4.03;;
19800;SDS011;10060;48.274;12.214;2023-07-20T03:54:35;9.23;;;4.15;;
19800;SDS011;10060;48.274;12.214;2023-07-20T03:57:37;10.80;;;4.70;;
19800;SDS011;10060;48.274;12.214;2023-07-20T04:00:43;5.82;;;3.85;;
19800;SDS011;10060;48.274;12.214;2023-07-20T04:03:46;9.30;;;3.85;;
19800;SDS011;10060;48.274;12.214;2023-07-20T04:06:48;9.02;;;4.10;;
19800;SDS011;10060;48.274;12.214;2023-07-20T04:09:50;5.90;;;3.58;;
19800;SDS011;10060;48.274;12.214;2023-07-20T04:12:52;7.00;;;4.63;;
19800;SDS011;10060;48.274;12.214;2023-07-20T04:15:55;8.32;;;4.22;;
19800;SDS011;10060;48.274;12.214;2023-07-20T04:18:58;10.02;;;3.72;;
19800;SDS011;10060;48.274;12.214;2023-07-20T04:22:00;5.55;;;3.42;;
19800;SDS011;10060;48.274;12.214;2023-07-20T04:25:03;8.25;;;3.75;;
19800;SDS011;10060;48.274;12.214;2023-07-20T04:28:06;5.88;;;3.70;;
19800;SDS011;10060;48.274;12.214;2023-07-20T04:31:09;7.93;;;3.72;;
19800;SDS011;10060;48.274;12.214;2023-07-20T04:34:13;6.07;;;3.33;;
19800;SDS011;10060;48.274;12.214;2023-07-20T04:37:15;4.82;;;3.28;;
19800;SDS011;10060;48.274;12.214;2023-07-20T04:40:18;3.42;;;2.95;;
19800;SDS011;10060;48.274;12.214;2023-07-20T04:43:20;15.48;;;3.35;;
19800;SDS011;10060;48.274;12.214;2023-07-20T04:46:22;6.03;;;3.20;;
19800;SDS011;10060;48.274;12.214;2023-07-20T04:49:25;8.63;;;3.30;;
19800;SDS011;10060;48.274;12.214;2023-07-20T04:52:28;4.88;;;2.78;;
19800;SDS011;10060;48.274;12.214;2023-07-20T04:55:30;5.93;;;3.38;;
19800;SDS011;10060;48.274;12.214;2023-07-20T04:58:34;4.90;;;3.08;;
19800;SDS011;10060;48.274;12.214;2023-07-20T05:01:36;6.15;;;3.28;;
19800;SDS011;10060;48.274;12.214;2023-07-20T05:04:39;4.78;;;3.78;;
19800;SDS011;10060;48.274;12.214;2023-07-20T05:07:41;5.45;;;3.90;;
19800;SDS011;10060;48.274;12.214;2023-07-20T05:10:43;4.90;;;2.72;;
19800;SDS011;10060;48.274;12.214;2023-07-20T05:13:46;5.35;;;2.60;;
19800;SDS011;10060;48.274;12.214;2023-07-20T05:16:48;7.40;;;2.97;;
19800;SDS011;10060;48.274;12.214;2023-07-20T05:19:51;5.32;;;2.38;;
19800;SDS011;10060;48.274;12.214;2023-07-20T05:22:53;4.43;;;2.30;;
19800;SDS011;10060;48.274;12.214;2023-07-20T05:25:56;4.32;;;2.03;;
19800;SDS011;10060;48.274;12.214;2023-07-20T05:28:58;4.53;;;2.53;;
19800;SDS011;10060;48.274;12.214;2023-07-20T05:32:00;5.18;;;2.25;;
19800;SDS011;10060;48.274;12.214;2023-07-20T05:35:04;11.23;;;2.47;;
19800;SDS011;10060;48.274;12.214;2023-07-20T05:38:07;5.07;;;2.50;;
19800;SDS011;10060;48.274;12.214;2023-07-20T05:41:09;4.25;;;2.08;;
19800;SDS011;10060;48.274;12.214;2023-07-20T05:44:11;4.90;;;2.50;;
19800;SDS011;10060;48.274;12.214;2023-07-20T05:47:13;3.97;;;2.13;;
19800;SDS011;10060;48.274;12.214;2023-07-20T05:50:17;4.75;;;2.33;;
19800;SDS011;10060;48.274;12.214;2023-07-20T05:53:19;5.38;;;2.40;;
19800;SDS011;10060;48.274;12.214;2023-07-20T05:56:21;4.60;;;2.17;;
19800;SDS011;10060;48.274;12.214;2023-07-20T05:59:24;3.75;;;2.53;;
19800;SDS011;10060;48.274;12.214;2023-07-20T06:02:28;3.55;;;2.10;;
19800;SDS011;10060;48.274;12.214;2023-07-20T06:05:31;3.15;;;1.92;;
19800;SDS011;10060;48.274;12.214;2023-07-20T06:08:33;4.43;;;2.00;;
19800;SDS011;10060;48.274;12.214;2023-07-20T06:11:35;5.32;;;2.30;;
19800;SDS011;10060;48.274;12.214;2023-07-20T06:14:38;3.22;;;1.98;;
19800;SDS011;10060;48.274;12.214;2023-07-20T06:17:40;4.05;;;1.85;;
19800;SDS011;10060;48.274;12.214;2023-07-20T06:20:44;4.43;;;2.30;;
19800;SDS011;10060;48.274;12.214;2023-07-20T06:23:50;5.72;;;2.10;;
19800;SDS011;10060;48.274;12.214;2023-07-20T06:26:52;5.82;;;2.30;;
19800;SDS011;10060;48.274;12.214;2023-07-20T06:29:54;7.20;;;2.03;;
19800;SDS011;10060;48.274;12.214;2023-07-20T06:32:56;4.63;;;2.38;;
19800;SDS011;10060;48.274;12.214;2023-07-20T06:35:59;6.95;;;2.22;;
19800;SDS011;10060;48.274;12.214;2023-07-20T06:39:02;4.85;;;2.20;;
19800;SDS011;10060;48.274;12.214;2023-07-20T06:42:04;2.00;;;1.88;;
19800;SDS011;10060;48.274;12.214;2023-07-20T06:45:07;6.35;;;2.08;;
19800;SDS011;10060;48.274;12.214;2023-07-20T06:48:09;2.33;;;1.70;;
19800;SDS011;10060;48.274;12.214;2023-07-20T06:51:12;2.92;;;1.83;;
19800;SDS011;10060;48.274;12.214;2023-07-20T06:54:14;4.50;;;2.00;;
19800;SDS011;10060;48.274;12.214;2023-07-20T06:57:16;3.67;;;2.30;;
19800;SDS011;10060;48.274;12.214;2023-07-20T07:00:19;3.85;;;1.75;;
19800;SDS011;10060;48.274;12.214;2023-07-20T07:03:21;3.40;;;2.17;;
19800;SDS011;10060;48.274;12.214;2023-07-20T07:06:25;6.28;;;2.00;;
19800;SDS011;10060;48.274;12.214;2023-07-20T07:09:28;4.20;;;2.28;;
19800;SDS011;10060;48.274;12.214;2023-07-20T07:12:30;2.10;;;1.85;;
19800;SDS011;10060;48.274;12.214;2023-07-20T07:15:33;3.28;;;1.95;;
19800;SDS011;10060;48.274;12.214;2023-07-20T07:18:35;6.05;;;2.97;;
19800;SDS011;10060;48.274;12.214;2023-07-20T07:21:38;3.78;;;1.95;;
19800;SDS011;10060;48.274;12.214;2023-07-20T07:24:40;4.18;;;2.10;;
19800;SDS011;10060;48.274;12.214;2023-07-20T07:27:43;4.47;;;1.90;;
19800;SDS011;10060;48.274;12.214;2023-07-20T07:30:45;4.43;;;1.70;;
19800;SDS011;10060;48.274;12.214;2023-07-20T07:33:47;2.20;;;2.00;;
19800;SDS011;10060;48.274;12.214;2023-07-20T07:36:50;2.85;;;1.80;;
19800;SDS011;10060;48.274;12.214;2023-07-20T07:39:52;2.67;;;1.90;;
19800;SDS011;10060;48.274;12.214;2023-07-20T07:42:55;4.18;;;2.35;;
19800;SDS011;10060;48.274;12.214;2023-07-20T07:45:57;5.85;;;2.13;;
19800;SDS011;10060;48.274;12.214;2023-07-20T07:48:59;6.78;;;2.40;;
19800;SDS011;10060;48.274;12.214;2023-07-20T07:52:03;3.55;;;2.17;;
19800;SDS011;10060;48.274;12.214;2023-07-20T07:55:05;4.57;;;1.90;;
19800;SDS011;10060;48.274;12.214;2023-07-20T07:58:07;2.78;;;1.88;;
19800;SDS011;10060;48.274;12.214;2023-07-20T08:01:10;2.78;;;1.95;;
19800;SDS011;10060;48.274;12.214;2023-07-20T08:04:12;3.88;;;2.20;;
19800;SDS011;10060;48.274;12.214;2023-07-20T08:07:15;2.30;;;1.50;;
19800;SDS011;10060;48.274;12.214;2023-07-20T08:10:17;2.63;;;1.63;;
19800;SDS011;10060;48.274;12.214;2023-07-20T08:13:20;2.20;;;1.88;;
19800;SDS011;10060;48.274;12.214;2023-07-20T08:16:22;3.58;;;1.52;;
19800;SDS011;10060;48.274;12.214;2023-07-20T08:19:24;2.30;;;1.48;;
19800;SDS011;10060;48.274;12.214;2023-07-20T08:22:27;1.52;;;1.17;;
19800;SDS011;10060;48.274;12.214;2023-07-20T08:25:29;9.35;;;2.55;;
19800;SDS011;10060;48.274;12.214;2023-07-20T08:28:32;4.50;;;1.73;;
19800;SDS011;10060;48.274;12.214;2023-07-20T08:31:34;3.95;;;2.08;;
19800;SDS011;10060;48.274;12.214;2023-07-20T08:34:36;5.00;;;1.50;;
19800;SDS011;10060;48.274;12.214;2023-07-20T08:37:39;4.10;;;1.73;;
19800;SDS011;10060;48.274;12.214;2023-07-20T08:40:42;3.10;;;1.60;;
19800;SDS011;10060;48.274;12.214;2023-07-20T08:43:44;4.18;;;1.65;;
19800;SDS011;10060;48.274;12.214;2023-07-20T08:46:48;2.83;;;1.80;;
19800;SDS011;10060;48.274;12.214;2023-07-20T08:49:50;3.75;;;1.60;;
19800;SDS011;10060;48.274;12.214;2023-07-20T08:52:54;5.07;;;1.48;;
19800;SDS011;10060;48.274;12.214;2023-07-20T08:55:58;3.25;;;1.40;;
19800;SDS011;10060;48.274;12.214;2023-07-20T08:59:01;3.00;;;1.60;;
19800;SDS011;10060;48.274;12.214;2023-07-20T09:02:04;3.42;;;1.58;;
19800;SDS011;10060;48.274;12.214;2023-07-20T09:05:07;3.78;;;1.38;;
19800;SDS011;10060;48.274;12.214;2023-07-20T09:08:11;3.53;;;1.45;;
19800;SDS011;10060;48.274;12.214;2023-07-20T09:11:13;4.32;;;1.60;;
19800;SDS011;10060;48.274;12.214;2023-07-20T09:14:16;2.25;;;1.50;;
19800;SDS011;10060;48.274;12.214;2023-07-20T09:17:18;1.88;;;1.30;;
19800;SDS011;10060;48.274;12.214;2023-07-20T09:20:20;2.15;;;1.50;;
19800;SDS011;10060;48.274;12.214;2023-07-20T09:23:30;3.30;;;1.85;;
19800;SDS011;10060;48.274;12.214;2023-07-20T09:26:32;5.03;;;1.50;;
19800;SDS011;10060;48.274;12.214;2023-07-20T09:29:48;2.03;;;1.52;;
19800;SDS011;10060;48.274;12.214;2023-07-20T09:32:50;2.78;;;1.52;;
19800;SDS011;10060;48.274;12.214;2023-07-20T09:35:52;4.45;;;1.88;;
19800;SDS011;10060;48.274;12.214;2023-07-20T09:38:55;2.78;;;1.50;;
19800;SDS011;10060;48.274;12.214;2023-07-20T09:41:59;6.30;;;2.00;;
19800;SDS011;10060;48.274;12.214;2023-07-20T09:45:02;4.15;;;1.67;;
19800;SDS011;10060;48.274;12.214;2023-07-20T09:48:04;2.20;;;1.58;;
19800;SDS011;10060;48.274;12.214;2023-07-20T09:51:06;5.50;;;1.40;;
19800;SDS011;10060;48.274;12.214;2023-07-20T09:54:10;2.63;;;1.50;;
19800;SDS011;10060;48.274;12.214;2023-07-20T09:57:13;2.60;;;1.60;;
19800;SDS011;10060;48.274;12.214;2023-07-20T10:00:16;2.88;;;1.63;;
19800;SDS011;10060;48.274;12.214;2023-07-20T10:03:18;2.05;;;1.42;;
19800;SDS011;10060;48.274;12.214;2023-07-20T10:06:23;3.70;;;1.75;;
19800;SDS011;10060;48.274;12.214;2023-07-20T10:09:26;3.03;;;1.85;;
19800;SDS011;10060;48.274;12.214;2023-07-20T10:12:29;3.40;;;1.67;;
19800;SDS011;10060;48.274;12.214;2023-07-20T10:15:33;4.30;;;1.95;;
19800;SDS011;10060;48.274;12.214;2023-07-20T10:18:38;1.98;;;1.40;;
19800;SDS011;10060;48.274;12.214;2023-07-20T10:21:46;11.30;;;1.42;;
19800;SDS011;10060;48.274;12.214;2023-07-20T10:24:50;2.58;;;1.65;;
19800;SDS011;10060;48.274;12.214;2023-07-20T10:27:54;2.08;;;1.50;;
19800;SDS011;10060;48.274;12.214;2023-07-20T10:30:56;2.90;;;1.65;;
19800;SDS011;10060;48.274;12.214;2023-07-20T10:33:59;3.97;;;1.45;;
19800;SDS011;10060;48.274;12.214;2023-07-20T10:37:01;5.07;;;1.85;;
19800;SDS011;10060;48.274;12.214;2023-07-20T10:43:22;3.17;;;1.60;;
19800;SDS011;10060;48.274;12.214;2023-07-20T10:46:36;2.38;;;1.40;;
19800;SDS011;10060;48.274;12.214;2023-07-20T10:49:57;2.22;;;1.55;;
19800;SDS011;10060;48.274;12.214;2023-07-20T10:53:13;3.78;;;2.10;;
19800;SDS011;10060;48.274;12.214;2023-07-20T10:56:20;2.65;;;1.60;;
19800;SDS011;10060;48.274;12.214;2023-07-20T10:59:36;5.70;;;1.60;;
19800;SDS011;10060;48.274;12.214;2023-07-20T11:02:41;2.05;;;1.45;;
19800;SDS011;10060;48.274;12.214;2023-07-20T11:05:44;4.00;;;1.90;;
19800;SDS011;10060;48.274;12.214;2023-07-20T11:08:46;6.13;;;1.55;;
19800;SDS011;10060;48.274;12.214;2023-07-20T11:11:48;2.65;;;1.55;;
19800;SDS011;10060;48.274;12.214;2023-07-20T11:14:54;3.15;;;1.60;;
19800;SDS011;10060;48.274;12.214;2023-07-20T11:18:10;3.17;;;1.70;;
19800;SDS011;10060;48.274;12.214;2023-07-20T11:21:13;3.05;;;1.58;;
19800;SDS011;10060;48.274;12.214;2023-07-20T11:24:16;3.03;;;1.80;;
19800;SDS011;10060;48.274;12.214;2023-07-20T11:27:18;2.78;;;1.80;;
19800;SDS011;10060;48.274;12.214;2023-07-20T11:30:23;3.60;;;2.13;;
19800;SDS011;10060;48.274;12.214;2023-07-20T11:33:26;2.83;;;1.60;;
19800;SDS011;10060;48.274;12.214;2023-07-20T11:36:28;1.90;;;1.63;;
19800;SDS011;10060;48.274;12.214;2023-07-20T11:39:30;3.42;;;1.70;;
19800;SDS011;10060;48.274;12.214;2023-07-20T11:42:33;2.33;;;1.50;;
19800;SDS011;10060;48.274;12.214;2023-07-20T11:45:36;1.55;;;1.40;;
19800;SDS011;10060;48.274;12.214;2023-07-20T11:48:39;4.70;;;1.67;;
19800;SDS011;10060;48.274;12.214;2023-07-20T11:51:41;2.65;;;1.95;;
19800;SDS011;10060;48.274;12.214;2023-07-20T11:54:43;4.18;;;1.63;;
19800;SDS011;10060;48.274;12.214;2023-07-20T11:58:03;2.97;;;1.60;;
19800;SDS011;10060;48.274;12.214;2023-07-20T12:01:06;3.47;;;1.63;;
19800;SDS011;10060;48.274;12.214;2023-07-20T12:04:08;2.20;;;1.60;;
19800;SDS011;10060;48.274;12.214;2023-07-20T12:07:10;2.25;;;1.60;;
19800;SDS011;10060;48.274;12.214;2023-07-20T12:10:13;3.10;;;1.88;;
19800;SDS011;10060;48.274;12.214;2023-07-20T12:13:15;4.05;;;1.90;;
19800;SDS011;10060;48.274;12.214;2023-07-20T12:16:19;4.63;;;1.92;;
19800;SDS011;10060;48.274;12.214;2023-07-20T12:19:24;2.05;;;1.50;;
19800;SDS011;10060;48.274;12.214;2023-07-20T12:22:27;2.78;;;1.85;;
19800;SDS011;10060;48.274;12.214;2023-07-20T12:25:32;2.50;;;1.65;;
19800;SDS011;10060;48.274;12.214;2023-07-20T12:28:35;2.83;;;1.50;;
19800;SDS011;10060;48.274;12.214;2023-07-20T12:31:42;3.55;;;1.90;;
19800;SDS011;10060;48.274;12.214;2023-07-20T12:34:44;4.55;;;1.75;;
19800;SDS011;10060;48.274;12.214;2023-07-20T12:37:46;2.17;;;1.60;;
19800;SDS011;10060;48.274;12.214;2023-07-20T12:40:49;3.38;;;1.63;;
19800;SDS011;10060;48.274;12.214;2023-07-20T12:43:51;2.58;;;1.90;;
19800;SDS011;10060;48.274;12.214;2023-07-20T12:46:54;2.58;;;1.77;;
19800;SDS011;10060;48.274;12.214;2023-07-20T12:49:57;4.72;;;2.25;;
19800;SDS011;10060;48.274;12.214;2023-07-20T12:52:59;3.40;;;2.38;;
19800;SDS011;10060;48.274;12.214;2023-07-20T12:56:04;2.35;;;1.75;;
19800;SDS011;10060;48.274;12.214;2023-07-20T12:59:06;3.78;;;1.60;;
19800;SDS011;10060;48.274;12.214;2023-07-20T13:02:09;1.98;;;1.60;;
19800;SDS011;10060;48.274;12.214;2023-07-20T13:05:11;2.65;;;1.58;;
19800;SDS011;10060;48.274;12.214;2023-07-20T13:08:13;2.80;;;2.00;;
19800;SDS011;10060;48.274;12.214;2023-07-20T13:11:16;2.70;;;1.70;;
19800;SDS011;10060;48.274;12.214;2023-07-20T13:14:18;2.55;;;1.70;;
19800;SDS011;10060;48.274;12.214;2023-07-20T13:17:21;2.20;;;1.50;;
19800;SDS011;10060;48.274;12.214;2023-07-20T13:20:23;4.32;;;2.03;;
19800;SDS011;10060;48.274;12.214;2023-07-20T13:23:25;4.40;;;2.05;;
19800;SDS011;10060;48.274;12.214;2023-07-20T13:26:28;4.38;;;1.80;;
19800;SDS011;10060;48.274;12.214;2023-07-20T13:29:30;2.10;;;1.55;;
19800;SDS011;10060;48.274;12.214;2023-07-20T13:32:33;3.60;;;2.10;;
19800;SDS011;10060;48.274;12.214;2023-07-20T13:35:36;3.28;;;1.90;;
19800;SDS011;10060;48.274;12.214;2023-07-20T13:38:38;2.85;;;1.27;;
19800;SDS011;10060;48.274;12.214;2023-07-20T13:41:40;2.90;;;1.60;;
19800;SDS011;10060;48.274;12.214;2023-07-20T13:44:42;1.60;;;1.50;;
19800;SDS011;10060;48.274;12.214;2023-07-20T13:47:46;14.90;;;2.30;;
19800;SDS011;10060;48.274;12.214;2023-07-20T13:50:48;4.88;;;1.80;;
19800;SDS011;10060;48.274;12.214;2023-07-20T13:53:51;3.85;;;2.53;;
19800;SDS011;10060;48.274;12.214;2023-07-20T13:56:53;2.42;;;1.60;;
19800;SDS011;10060;48.274;12.214;2023-07-20T13:59:55;7.50;;;1.50;;
19800;SDS011;10060;48.274;12.214;2023-07-20T14:02:58;2.63;;;1.58;;
19800;SDS011;10060;48.274;12.214;2023-07-20T14:06:00;3.95;;;1.80;;
19800;SDS011;10060;48.274;12.214;2023-07-20T14:09:02;4.47;;;1.88;;
19800;SDS011;10060;48.274;12.214;2023-07-20T14:12:05;4.20;;;1.67;;
19800;SDS011;10060;48.274;12.214;2023-07-20T14:15:09;1.98;;;1.58;;
19800;SDS011;10060;48.274;12.214;2023-07-20T14:18:13;2.10;;;1.48;;
19800;SDS011;10060;48.274;12.214;2023-07-20T14:21:15;2.42;;;1.50;;
19800;SDS011;10060;48.274;12.214;2023-07-20T14:24:17;2.25;;;1.65;;
19800;SDS011;10060;48.274;12.214;2023-07-20T14:27:19;2.53;;;1.70;;
19800;SDS011;10060;48.274;12.214;2023-07-20T14:30:22;2.63;;;1.60;;
19800;SDS011;10060;48.274;12.214;2023-07-20T14:33:25;1.60;;;1.27;;
19800;SDS011;10060;48.274;12.214;2023-07-20T14:36:27;2.55;;;1.63;;
19800;SDS011;10060;48.274;12.214;2023-07-20T14:39:29;1.90;;;1.50;;
19800;SDS011;10060;48.274;12.214;2023-07-20T14:42:31;2.47;;;1.60;;
19800;SDS011;10060;48.274;12.214;2023-07-20T14:45:33;3.70;;;1.65;;
19800;SDS011;10060;48.274;12.214;2023-07-20T14:48:38;8.52;;;1.75;;
19800;SDS011;10060;48.274;12.214;2023-07-20T14:51:40;4.25;;;1.63;;
19800;SDS011;10060;48.274;12.214;2023-07-20T14:54:46;3.63;;;1.60;;
19800;SDS011;10060;48.274;12.214;2023-07-20T14:57:48;3.28;;;1.55;;
19800;SDS011;10060;48.274;12.214;2023-07-20T15:00:50;2.40;;;1.35;;
19800;SDS011;10060;48.274;12.214;2023-07-20T15:03:54;3.75;;;1.83;;
19800;SDS011;10060;48.274;12.214;2023-07-20T15:06:56;1.70;;;1.48;;
19800;SDS011;10060;48.274;12.214;2023-07-20T15:09:58;3.17;;;1.73;;
19800;SDS011;10060;48.274;12.214;2023-07-20T15:13:00;3.42;;;2.08;;
19800;SDS011;10060;48.274;12.214;2023-07-20T15:16:03;1.98;;;1.40;;
19800;SDS011;10060;48.274;12.214;2023-07-20T15:19:08;2.38;;;1.50;;
19800;SDS011;10060;48.274;12.214;2023-07-20T15:22:13;1.92;;;1.50;;
19800;SDS011;10060;48.274;12.214;2023-07-20T15:25:15;3.03;;;2.28;;
19800;SDS011;10060;48.274;12.214;2023-07-20T15:28:17;3.47;;;1.73;;
19800;SDS011;10060;48.274;12.214;2023-07-20T15:31:19;2.60;;;1.70;;
19800;SDS011;10060;48.274;12.214;2023-07-20T15:34:23;5.90;;;1.88;;
19800;SDS011;10060;48.274;12.214;2023-07-20T15:37:25;2.47;;;1.70;;
19800;SDS011;10060;48.274;12.214;2023-07-20T15:40:27;4.38;;;2.13;;
19800;SDS011;10060;48.274;12.214;2023-07-20T15:43:29;2.50;;;1.77;;
19800;SDS011;10060;48.274;12.214;2023-07-20T15:49:50;2.33;;;1.60;;
19800;SDS011;10060;48.274;12.214;2023-07-20T15:52:52;4.10;;;2.15;;
19800;SDS011;10060;48.274;12.214;2023-07-20T15:55:54;3.20;;;1.90;;
19800;SDS011;10060;48.274;12.214;2023-07-20T15:58:56;5.00;;;2.13;;
19800;SDS011;10060;48.274;12.214;2023-07-20T16:01:58;4.00;;;1.90;;
19800;SDS011;10060;48.274;12.214;2023-07-20T16:05:01;4.05;;;1.42;;
19800;SDS011;10060;48.274;12.214;2023-07-20T16:08:03;2.55;;;1.60;;
19800;SDS011;10060;48.274;12.214;2023-07-20T16:11:06;5.80;;;1.73;;
19800;SDS011;10060;48.274;12.214;2023-07-20T16:14:08;6.10;;;1.63;;
19800;SDS011;10060;48.274;12.214;2023-07-20T16:17:11;3.88;;;1.80;;
19800;SDS011;10060;48.274;12.214;2023-07-20T16:20:15;2.72;;;1.80;;
19800;SDS011;10060;48.274;12.214;2023-07-20T16:23:17;5.05;;;2.60;;
19800;SDS011;10060;48.274;12.214;2023-07-20T16:26:19;5.18;;;2.92;;
19800;SDS011;10060;48.274;12.214;2023-07-20T16:29:21;4.18;;;1.80;;
19800;SDS011;10060;48.274;12.214;2023-07-20T16:32:24;5.50;;;1.92;;
19800;SDS011;10060;48.274;12.214;2023-07-20T16:35:27;5.18;;;1.63;;
19800;SDS011;10060;48.274;12.214;2023-07-20T16:38:29;5.35;;;2.63;;
19800;SDS011;10060;48.274;12.214;2023-07-20T16:41:31;2.08;;;1.77;;
19800;SDS011;10060;48.274;12.214;2023-07-20T16:44:33;4.68;;;1.75;;
19800;SDS011;10060;48.274;12.214;2023-07-20T16:47:36;5.13;;;3.05;;
19800;SDS011;10060;48.274;12.214;2023-07-20T16:50:39;5.00;;;2.47;;
19800;SDS011;10060;48.274;12.214;2023-07-20T16:53:41;2.92;;;1.90;;
19800;SDS011;10060;48.274;12.214;2023-07-20T16:56:43;2.15;;;1.40;;
19800;SDS011;10060;48.274;12.214;2023-07-20T16:59:45;4.20;;;1.80;;
19800;SDS011;10060;48.274;12.214;2023-07-20T17:02:47;1.67;;;1.40;;
19800;SDS011;10060;48.274;12.214;2023-07-20T17:05:51;1.75;;;1.50;;
19800;SDS011;10060;48.274;12.214;2023-07-20T17:08:53;4.78;;;1.60;;
19800;SDS011;10060;48.274;12.214;2023-07-20T17:12:00;1.80;;;1.55;;
19800;SDS011;10060;48.274;12.214;2023-07-20T17:15:02;2.08;;;1.48;;
19800;SDS011;10060;48.274;12.214;2023-07-20T17:18:04;3.92;;;1.45;;
19800;SDS011;10060;48.274;12.214;2023-07-20T17:21:08;3.30;;;1.50;;
19800;SDS011;10060;48.274;12.214;2023-07-20T17:24:11;4.22;;;1.92;;
19800;SDS011;10060;48.274;12.214;2023-07-20T17:27:13;4.20;;;1.80;;
19800;SDS011;10060;48.274;12.214;2023-07-20T17:30:15;2.03;;;1.75;;
19800;SDS011;10060;48.274;12.214;2023-07-20T17:33:17;1.83;;;1.50;;
19800;SDS011;10060;48.274;12.214;2023-07-20T17:36:21;3.50;;;1.52;;
19800;SDS011;10060;48.274;12.214;2023-07-20T17:39:23;6.82;;;1.70;;
19800;SDS011;10060;48.274;12.214;2023-07-20T17:42:26;2.58;;;1.50;;
19800;SDS011;10060;48.274;12.214;2023-07-20T17:45:28;3.55;;;1.77;;
19800;SDS011;10060;48.274;12.214;2023-07-20T17:48:31;4.75;;;1.98;;
19800;SDS011;10060;48.274;12.214;2023-07-20T17:51:37;3.10;;;1.83;;
19800;SDS011;10060;48.274;12.214;2023-07-20T17:54:39;3.05;;;2.13;;
19800;SDS011;10060;48.274;12.214;2023-07-20T17:57:41;4.72;;;1.48;;
19800;SDS011;10060;48.274;12.214;2023-07-20T18:00:43;1.73;;;1.60;;
19800;SDS011;10060;48.274;12.214;2023-07-20T18:03:45;2.88;;;1.80;;
19800;SDS011;10060;48.274;12.214;2023-07-20T18:06:49;4.22;;;1.95;;
19800;SDS011;10060;48.274;12.214;2023-07-20T18:09:51;3.13;;;1.63;;
19800;SDS011;10060;48.274;12.214;2023-07-20T18:12:53;3.03;;;1.45;;
19800;SDS011;10060;48.274;12.214;2023-07-20T18:15:55;5.07;;;1.95;;